sensor_id;sensor_type;location;lat;lon;timestamp;pressure;altitude;pressure_sealevel;temperature;humidity
74778;BME280;63298;53.164;8.610;2023-05-14T00:01:51;102086.09;;;17.01;43.86
74778;BME280;63298;53.164;8.610;2023-05-14T00:04:16;102086.00;;;16.96;44.02
74778;BME280;63298;53.164;8.610;2023-05-14T00:06:42;102090.38;;;16.92;44.17
74778;BME280;63298;53.164;8.610;2023-05-14T00:09:07;102087.00;;;16.90;44.23
74778;BME280;63298;53.164;8.610;2023-05-14T00:11:32;102096.44;;;16.89;44.01
74778;BME280;63298;53.164;8.610;2023-05-14T00:13:58;102082.66;;;16.82;44.24
74778;BME280;63298;53.164;8.610;2023-05-14T00:16:23;102094.41;;;16.84;44.41
74778;BME280;63298;53.164;8.610;2023-05-14T00:18:48;102087.88;;;16.78;44.58
74778;BME280;63298;53.164;8.610;2023-05-14T00:21:13;102087.41;;;16.70;44.79
74778;BME280;63298;53.164;8.610;2023-05-14T00:23:39;102089.75;;;16.61;45.05
74778;BME280;63298;53.164;8.610;2023-05-14T00:26:04;102091.31;;;16.57;45.00
74778;BME280;63298;53.164;8.610;2023-05-14T00:28:29;102089.00;;;16.54;45.18
74778;BME280;63298;53.164;8.610;2023-05-14T00:30:55;102087.91;;;16.55;45.00
74778;BME280;63298;53.164;8.610;2023-05-14T00:33:20;102090.72;;;16.55;45.30
74778;BME280;63298;53.164;8.610;2023-05-14T00:35:45;102083.44;;;16.54;45.30
74778;BME280;63298;53.164;8.610;2023-05-14T00:38:11;102080.91;;;16.53;45.68
74778;BME280;63298;53.164;8.610;2023-05-14T00:40:36;102069.28;;;16.44;45.74
74778;BME280;63298;53.164;8.610;2023-05-14T00:43:02;102075.72;;;16.45;45.74
74778;BME280;63298;53.164;8.610;2023-05-14T00:45:27;102080.81;;;16.36;45.97
74778;BME280;63298;53.164;8.610;2023-05-14T00:47:52;102072.25;;;16.26;45.90
74778;BME280;63298;53.164;8.610;2023-05-14T00:50:18;102071.16;;;16.27;46.47
74778;BME280;63298;53.164;8.610;2023-05-14T00:52:45;102070.06;;;16.28;46.24
74778;BME280;63298;53.164;8.610;2023-05-14T00:55:12;102064.72;;;16.26;46.03
74778;BME280;63298;53.164;8.610;2023-05-14T00:57:38;102058.81;;;16.23;46.21
74778;BME280;63298;53.164;8.610;2023-05-14T01:00:04;102073.31;;;16.25;46.36
74778;BME280;63298;53.164;8.610;2023-05-14T01:02:29;102065.34;;;16.17;46.88
74778;BME280;63298;53.164;8.610;2023-05-14T01:04:55;102072.41;;;16.08;47.21
74778;BME280;63298;53.164;8.610;2023-05-14T01:10:26;102066.34;;;15.87;47.97
74778;BME280;63298;53.164;8.610;2023-05-14T01:12:58;102076.00;;;15.85;47.80
74778;BME280;63298;53.164;8.610;2023-05-14T01:15:29;102060.28;;;15.79;47.13
74778;BME280;63298;53.164;8.610;2023-05-14T01:18:00;102064.28;;;15.83;47.45
74778;BME280;63298;53.164;8.610;2023-05-14T01:20:27;102066.94;;;15.89;47.42
74778;BME280;63298;53.164;8.610;2023-05-14T01:22:53;102071.41;;;15.90;47.47
74778;BME280;63298;53.164;8.610;2023-05-14T01:25:18;102065.50;;;15.87;47.28
74778;BME280;63298;53.164;8.610;2023-05-14T01:28:11;102068.50;;;15.85;48.26
74778;BME280;63298;53.164;8.610;2023-05-14T01:30:44;102066.81;;;15.84;47.84
74778;BME280;63298;53.164;8.610;2023-05-14T01:33:11;102059.56;;;15.83;47.86
74778;BME280;63298;53.164;8.610;2023-05-14T01:35:37;102055.56;;;15.79;47.99
74778;BME280;63298;53.164;8.610;2023-05-14T01:38:05;102058.97;;;15.81;48.33
74778;BME280;63298;53.164;8.610;2023-05-14T01:40:32;102059.69;;;15.77;48.41
74778;BME280;63298;53.164;8.610;2023-05-14T01:42:57;102041.16;;;15.71;48.48
74778;BME280;63298;53.164;8.610;2023-05-14T01:45:23;102054.63;;;15.74;48.79
74778;BME280;63298;53.164;8.610;2023-05-14T01:47:49;102049.53;;;15.71;48.59
74778;BME280;63298;53.164;8.610;2023-05-14T01:50:15;102050.88;;;15.68;48.95
74778;BME280;63298;53.164;8.610;2023-05-14T01:52:40;102048.09;;;15.68;48.66
74778;BME280;63298;53.164;8.610;2023-05-14T01:55:06;102052.78;;;15.68;48.69
74778;BME280;63298;53.164;8.610;2023-05-14T01:57:31;102050.00;;;15.68;48.74
74778;BME280;63298;53.164;8.610;2023-05-14T01:59:57;102050.00;;;15.68;49.01
74778;BME280;63298;53.164;8.610;2023-05-14T02:02:22;102048.31;;;15.67;48.77
74778;BME280;63298;53.164;8.610;2023-05-14T02:04:47;102046.63;;;15.66;48.89
74778;BME280;63298;53.164;8.610;2023-05-14T02:07:13;102037.69;;;15.64;49.39
74778;BME280;63298;53.164;8.610;2023-05-14T02:09:38;102037.91;;;15.62;49.40
74778;BME280;63298;53.164;8.610;2023-05-14T02:12:03;102034.78;;;15.59;49.64
74778;BME280;63298;53.164;8.610;2023-05-14T02:14:29;102029.09;;;15.53;49.41
74778;BME280;63298;53.164;8.610;2023-05-14T02:16:54;102025.53;;;15.46;49.48
74778;BME280;63298;53.164;8.610;2023-05-14T02:19:19;102027.69;;;15.44;49.40
74778;BME280;63298;53.164;8.610;2023-05-14T02:21:45;102021.78;;;15.41;49.69
74778;BME280;63298;53.164;8.610;2023-05-14T02:24:11;102021.63;;;15.36;49.88
74778;BME280;63298;53.164;8.610;2023-05-14T02:26:36;102019.72;;;15.36;50.04
74778;BME280;63298;53.164;8.610;2023-05-14T02:29:01;102019.22;;;15.28;50.13
74778;BME280;63298;53.164;8.610;2023-05-14T02:31:26;102014.00;;;15.20;49.71
74778;BME280;63298;53.164;8.610;2023-05-14T02:33:52;102016.91;;;15.13;50.12
74778;BME280;63298;53.164;8.610;2023-05-14T02:36:18;102006.50;;;15.08;49.79
74778;BME280;63298;53.164;8.610;2023-05-14T02:38:43;102001.66;;;15.04;49.99
74778;BME280;63298;53.164;8.610;2023-05-14T02:41:08;102008.75;;;15.00;50.08
74778;BME280;63298;53.164;8.610;2023-05-14T02:43:34;101992.78;;;14.95;50.45
74778;BME280;63298;53.164;8.610;2023-05-14T02:45:59;101996.81;;;14.99;50.25
74778;BME280;63298;53.164;8.610;2023-05-14T02:48:25;101998.03;;;15.03;50.09
74778;BME280;63298;53.164;8.610;2023-05-14T02:50:50;101999.72;;;15.04;49.97
74778;BME280;63298;53.164;8.610;2023-05-14T02:53:17;101999.47;;;15.06;49.97
74778;BME280;63298;53.164;8.610;2023-05-14T02:55:43;101993.91;;;15.06;50.23
74778;BME280;63298;53.164;8.610;2023-05-14T02:58:08;101990.53;;;15.04;50.17
74778;BME280;63298;53.164;8.610;2023-05-14T03:00:34;101992.06;;;15.00;50.00
74778;BME280;63298;53.164;8.610;2023-05-14T03:02:59;101972.00;;;14.86;50.43
74778;BME280;63298;53.164;8.610;2023-05-14T03:05:25;101980.47;;;14.91;50.95
74778;BME280;63298;53.164;8.610;2023-05-14T03:07:51;101976.47;;;14.87;50.84
74778;BME280;63298;53.164;8.610;2023-05-14T03:10:18;101980.81;;;14.83;50.80
74778;BME280;63298;53.164;8.610;2023-05-14T03:12:44;101993.72;;;14.78;51.16
74778;BME280;63298;53.164;8.610;2023-05-14T03:15:10;102001.06;;;14.72;51.17
74778;BME280;63298;53.164;8.610;2023-05-14T03:17:35;102000.47;;;14.70;51.65
74778;BME280;63298;53.164;8.610;2023-05-14T03:20:01;101999.84;;;14.68;51.38
74778;BME280;63298;53.164;8.610;2023-05-14T03:22:26;101997.69;;;14.70;51.44
74778;BME280;63298;53.164;8.610;2023-05-14T03:24:51;102003.69;;;14.67;51.90
74778;BME280;63298;53.164;8.610;2023-05-14T03:27:17;102003.69;;;14.67;51.59
74778;BME280;63298;53.164;8.610;2023-05-14T03:29:42;101992.81;;;14.65;52.24
74778;BME280;63298;53.164;8.610;2023-05-14T03:32:08;101998.63;;;14.64;52.18
74778;BME280;63298;53.164;8.610;2023-05-14T03:34:33;101988.13;;;14.66;52.10
74778;BME280;63298;53.164;8.610;2023-05-14T03:36:58;102011.59;;;14.70;52.77
74778;BME280;63298;53.164;8.610;2023-05-14T03:39:23;102000.47;;;14.70;52.29
74778;BME280;63298;53.164;8.610;2023-05-14T03:41:49;102008.19;;;14.68;52.98
74778;BME280;63298;53.164;8.610;2023-05-14T03:44:14;102016.03;;;14.71;52.62
74778;BME280;63298;53.164;8.610;2023-05-14T03:46:39;102012.19;;;14.72;52.96
74778;BME280;63298;53.164;8.610;2023-05-14T03:49:05;102001.56;;;14.69;53.25
74778;BME280;63298;53.164;8.610;2023-05-14T03:51:31;102005.63;;;14.66;52.79
74778;BME280;63298;53.164;8.610;2023-05-14T03:53:56;102000.94;;;14.67;53.29
74778;BME280;63298;53.164;8.610;2023-05-14T03:56:21;102005.63;;;14.66;53.24
74778;BME280;63298;53.164;8.610;2023-05-14T03:58:46;102000.34;;;14.65;52.76
74778;BME280;63298;53.164;8.610;2023-05-14T04:01:12;102003.47;;;14.68;53.06
74778;BME280;63298;53.164;8.610;2023-05-14T04:03:37;102008.81;;;14.70;53.01
74778;BME280;63298;53.164;8.610;2023-05-14T04:06:02;102006.47;;;14.67;52.91
74778;BME280;63298;53.164;8.610;2023-05-14T04:08:28;102006.63;;;14.72;52.46
74778;BME280;63298;53.164;8.610;2023-05-14T04:10:53;102010.25;;;14.73;53.00
74778;BME280;63298;53.164;8.610;2023-05-14T04:13:18;102004.47;;;14.74;52.51
74778;BME280;63298;53.164;8.610;2023-05-14T04:15:44;102013.53;;;14.81;52.57
74778;BME280;63298;53.164;8.610;2023-05-14T04:18:09;102017.53;;;14.85;52.55
74778;BME280;63298;53.164;8.610;2023-05-14T04:20:34;102013.44;;;14.88;52.47
74778;BME280;63298;53.164;8.610;2023-05-14T04:22:59;102017.44;;;14.92;52.58
74778;BME280;63298;53.164;8.610;2023-05-14T04:25:25;102016.94;;;14.95;52.42
74778;BME280;63298;53.164;8.610;2023-05-14T04:27:50;102025.19;;;14.90;52.59
74778;BME280;63298;53.164;8.610;2023-05-14T04:30:15;102020.94;;;14.87;53.23
74778;BME280;63298;53.164;8.610;2023-05-14T04:32:41;102017.78;;;14.84;53.44
74778;BME280;63298;53.164;8.610;2023-05-14T04:35:06;102017.25;;;14.75;53.71
74778;BME280;63298;53.164;8.610;2023-05-14T04:37:32;102015.31;;;14.76;53.57
74778;BME280;63298;53.164;8.610;2023-05-14T04:39:57;102012.94;;;14.79;52.99
74778;BME280;63298;53.164;8.610;2023-05-14T04:42:22;102014.38;;;14.82;53.31
74778;BME280;63298;53.164;8.610;2023-05-14T04:44:48;102010.44;;;14.89;53.31
74778;BME280;63298;53.164;8.610;2023-05-14T04:47:13;102014.78;;;14.97;53.14
74778;BME280;63298;53.164;8.610;2023-05-14T04:49:38;102005.75;;;15.01;53.10
74778;BME280;63298;53.164;8.610;2023-05-14T04:52:05;102008.06;;;15.04;53.13
74778;BME280;63298;53.164;8.610;2023-05-14T04:54:30;102013.84;;;15.03;53.84
74778;BME280;63298;53.164;8.610;2023-05-14T04:56:55;102024.03;;;15.09;53.31
74778;BME280;63298;53.164;8.610;2023-05-14T04:59:21;102024.88;;;15.09;53.51
74778;BME280;63298;53.164;8.610;2023-05-14T05:01:46;102022.56;;;15.06;53.40
74778;BME280;63298;53.164;8.610;2023-05-14T05:04:12;102027.03;;;15.07;53.54
74778;BME280;63298;53.164;8.610;2023-05-14T05:06:37;102026.19;;;15.07;53.79
74778;BME280;63298;53.164;8.610;2023-05-14T05:09:02;102027.66;;;15.09;53.85
74778;BME280;63298;53.164;8.610;2023-05-14T05:11:27;102029.59;;;15.09;53.83
74778;BME280;63298;53.164;8.610;2023-05-14T05:13:53;102023.53;;;15.12;53.68
74778;BME280;63298;53.164;8.610;2023-05-14T05:16:18;102024.38;;;15.12;53.65
74778;BME280;63298;53.164;8.610;2023-05-14T05:18:43;102015.44;;;15.10;54.08
74778;BME280;63298;53.164;8.610;2023-05-14T05:21:09;102023.75;;;15.10;53.90
74778;BME280;63298;53.164;8.610;2023-05-14T05:23:34;102017.00;;;15.06;54.39
74778;BME280;63298;53.164;8.610;2023-05-14T05:25:59;102013.28;;;15.12;54.59
74778;BME280;63298;53.164;8.610;2023-05-14T05:28:25;102022.19;;;15.14;54.27
74778;BME280;63298;53.164;8.610;2023-05-14T05:30:50;102027.31;;;15.18;54.58
74778;BME280;63298;53.164;8.610;2023-05-14T05:33:15;102020.78;;;15.24;54.33
74778;BME280;63298;53.164;8.610;2023-05-14T05:35:41;102030.69;;;15.31;54.27
74778;BME280;63298;53.164;8.610;2023-05-14T05:38:06;102023.97;;;15.39;54.39
74778;BME280;63298;53.164;8.610;2023-05-14T05:40:31;102029.38;;;15.45;54.40
74778;BME280;63298;53.164;8.610;2023-05-14T05:42:57;102022.06;;;15.51;54.14
74778;BME280;63298;53.164;8.610;2023-05-14T05:45:22;102019.63;;;15.54;54.48
74778;BME280;63298;53.164;8.610;2023-05-14T05:47:47;102018.81;;;15.54;54.12
74778;BME280;63298;53.164;8.610;2023-05-14T05:50:12;102017.09;;;15.53;54.31
74778;BME280;63298;53.164;8.610;2023-05-14T05:52:38;102021.00;;;15.64;54.44
74778;BME280;63298;53.164;8.610;2023-05-14T05:55:04;102016.97;;;15.71;54.58
74778;BME280;63298;53.164;8.610;2023-05-14T05:57:29;102006.22;;;15.75;54.59
74778;BME280;63298;53.164;8.610;2023-05-14T05:59:55;102010.56;;;15.82;54.47
74778;BME280;63298;53.164;8.610;2023-05-14T06:02:20;102011.16;;;15.84;54.37
74778;BME280;63298;53.164;8.610;2023-05-14T06:04:45;102016.59;;;15.91;54.68
74778;BME280;63298;53.164;8.610;2023-05-14T06:07:11;102016.72;;;15.96;54.47
74778;BME280;63298;53.164;8.610;2023-05-14T06:09:36;102024.56;;;15.99;54.51
74778;BME280;63298;53.164;8.610;2023-05-14T06:12:02;102013.94;;;15.96;54.81
74778;BME280;63298;53.164;8.610;2023-05-14T06:14:27;102030.53;;;16.03;54.65
74778;BME280;63298;53.164;8.610;2023-05-14T06:16:52;102027.47;;;16.04;55.10
74778;BME280;63298;53.164;8.610;2023-05-14T06:19:17;102023.59;;;16.05;55.35
74778;BME280;63298;53.164;8.610;2023-05-14T06:21:43;102035.69;;;16.11;55.13
74778;BME280;63298;53.164;8.610;2023-05-14T06:24:08;102032.91;;;16.11;55.13
74778;BME280;63298;53.164;8.610;2023-05-14T06:26:34;102037.50;;;16.17;55.05
74778;BME280;63298;53.164;8.610;2023-05-14T06:28:59;102037.63;;;16.22;55.18
74778;BME280;63298;53.164;8.610;2023-05-14T06:31:24;102038.31;;;16.29;54.88
74778;BME280;63298;53.164;8.610;2023-05-14T06:33:49;102042.69;;;16.36;55.11
74778;BME280;63298;53.164;8.610;2023-05-14T06:36:15;102047.75;;;16.39;55.19
74778;BME280;63298;53.164;8.610;2023-05-14T06:38:40;102032.50;;;16.42;54.72
74778;BME280;63298;53.164;8.610;2023-05-14T06:41:05;102046.88;;;16.51;55.09
74778;BME280;63298;53.164;8.610;2023-05-14T06:43:31;102039.72;;;16.55;55.43
74778;BME280;63298;53.164;8.610;2023-05-14T06:45:56;102037.91;;;16.60;55.60
74778;BME280;63298;53.164;8.610;2023-05-14T06:48:21;102041.88;;;16.64;55.25
74778;BME280;63298;53.164;8.610;2023-05-14T06:50:48;102039.81;;;16.71;55.52
74778;BME280;63298;53.164;8.610;2023-05-14T06:53:13;102034.06;;;16.78;55.39
74778;BME280;63298;53.164;8.610;2023-05-14T06:55:39;102042.91;;;16.87;55.67
74778;BME280;63298;53.164;8.610;2023-05-14T06:58:07;102032.94;;;16.91;55.85
74778;BME280;63298;53.164;8.610;2023-05-14T07:00:33;102042.69;;;17.05;55.39
74778;BME280;63298;53.164;8.610;2023-05-14T07:02:58;102035.81;;;17.12;55.32
74778;BME280;63298;53.164;8.610;2023-05-14T07:05:24;102037.03;;;17.33;55.16
74778;BME280;63298;53.164;8.610;2023-05-14T07:07:49;102028.00;;;17.43;55.16
74778;BME280;63298;53.164;8.610;2023-05-14T07:10:14;102038.47;;;17.52;54.92
74778;BME280;63298;53.164;8.610;2023-05-14T07:12:40;102031.88;;;17.58;55.40
74778;BME280;63298;53.164;8.610;2023-05-14T07:15:06;102032.97;;;17.57;55.67
74778;BME280;63298;53.164;8.610;2023-05-14T07:17:31;102027.88;;;17.66;55.75
74778;BME280;63298;53.164;8.610;2023-05-14T07:19:56;102024.97;;;17.78;55.50
74778;BME280;63298;53.164;8.610;2023-05-14T07:22:22;102023.41;;;17.87;55.38
74778;BME280;63298;53.164;8.610;2023-05-14T07:24:47;102024.03;;;17.89;55.61
74778;BME280;63298;53.164;8.610;2023-05-14T07:27:12;102024.16;;;17.99;55.30
74778;BME280;63298;53.164;8.610;2023-05-14T07:29:38;102027.44;;;18.12;55.27
74778;BME280;63298;53.164;8.610;2023-05-14T07:32:03;102008.19;;;18.16;55.21
74778;BME280;63298;53.164;8.610;2023-05-14T07:34:29;102016.28;;;18.34;54.79
74778;BME280;63298;53.164;8.610;2023-05-14T07:36:54;102014.53;;;18.50;54.70
74778;BME280;63298;53.164;8.610;2023-05-14T07:39:20;102005.38;;;18.54;54.80
74778;BME280;63298;53.164;8.610;2023-05-14T07:41:45;102017.91;;;18.74;54.22
74778;BME280;63298;53.164;8.610;2023-05-14T07:44:10;102010.72;;;18.83;54.03
74778;BME280;63298;53.164;8.610;2023-05-14T07:46:35;102017.63;;;19.02;53.85
74778;BME280;63298;53.164;8.610;2023-05-14T07:49:01;102006.03;;;19.20;53.37
74778;BME280;63298;53.164;8.610;2023-05-14T07:51:26;102013.72;;;19.35;53.15
74778;BME280;63298;53.164;8.610;2023-05-14T07:53:52;102016.13;;;19.48;52.97
74778;BME280;63298;53.164;8.610;2023-05-14T07:56:17;101995.47;;;19.59;52.74
74778;BME280;63298;53.164;8.610;2023-05-14T07:58:42;102006.78;;;19.74;52.41
74778;BME280;63298;53.164;8.610;2023-05-14T08:01:08;102007.66;;;19.80;52.01
74778;BME280;63298;53.164;8.610;2023-05-14T08:03:33;101990.63;;;19.87;51.36
74778;BME280;63298;53.164;8.610;2023-05-14T08:05:58;101986.47;;;19.94;51.20
74778;BME280;63298;53.164;8.610;2023-05-14T08:08:24;101992.38;;;19.98;51.10
74778;BME280;63298;53.164;8.610;2023-05-14T08:10:49;101990.16;;;20.05;50.93
74778;BME280;63298;53.164;8.610;2023-05-14T08:13:15;101987.13;;;20.11;51.16
74778;BME280;63298;53.164;8.610;2023-05-14T08:15:40;101988.25;;;20.15;50.89
74778;BME280;63298;53.164;8.610;2023-05-14T08:18:05;101987.69;;;20.18;51.07
74778;BME280;63298;53.164;8.610;2023-05-14T08:20:31;101981.56;;;20.21;50.78
74778;BME280;63298;53.164;8.610;2023-05-14T08:22:56;101990.28;;;20.25;50.83
74778;BME280;63298;53.164;8.610;2023-05-14T08:25:21;101986.63;;;20.24;50.65
74778;BME280;63298;53.164;8.610;2023-05-14T08:27:47;101986.63;;;20.24;50.60
74778;BME280;63298;53.164;8.610;2023-05-14T08:30:12;101995.06;;;20.30;50.59
74778;BME280;63298;53.164;8.610;2023-05-14T08:32:38;101994.53;;;20.33;50.34
74778;BME280;63298;53.164;8.610;2023-05-14T08:35:03;101997.91;;;20.35;50.52
74778;BME280;63298;53.164;8.610;2023-05-14T08:37:28;101996.81;;;20.41;50.27
74778;BME280;63298;53.164;8.610;2023-05-14T08:39:54;101989.53;;;20.45;50.11
74778;BME280;63298;53.164;8.610;2023-05-14T08:42:19;101987.84;;;20.44;49.86
74778;BME280;63298;53.164;8.610;2023-05-14T08:44:52;101983.69;;;20.51;50.03
74778;BME280;63298;53.164;8.610;2023-05-14T08:47:17;101983.41;;;20.63;49.55
74778;BME280;63298;53.164;8.610;2023-05-14T08:49:46;101986.53;;;20.72;49.29
74778;BME280;63298;53.164;8.610;2023-05-14T08:52:15;101978.44;;;20.80;49.12
74778;BME280;63298;53.164;8.610;2023-05-14T08:54:42;101985.75;;;20.86;49.07
74778;BME280;63298;53.164;8.610;2023-05-14T08:57:10;101976.19;;;20.92;48.88
74778;BME280;63298;53.164;8.610;2023-05-14T08:59:35;101965.53;;;20.99;48.83
74778;BME280;63298;53.164;8.610;2023-05-14T09:02:02;101970.63;;;21.18;48.51
74778;BME280;63298;53.164;8.610;2023-05-14T09:04:29;101970.94;;;21.31;48.16
74778;BME280;63298;53.164;8.610;2023-05-14T09:06:55;101970.09;;;21.41;48.02
74778;BME280;63298;53.164;8.610;2023-05-14T09:09:21;101966.13;;;21.52;47.19
74778;BME280;63298;53.164;8.610;2023-05-14T09:11:48;101968.38;;;21.60;47.14
74778;BME280;63298;53.164;8.610;2023-05-14T09:14:14;101961.59;;;21.66;47.18
74778;BME280;63298;53.164;8.610;2023-05-14T09:16:39;101964.41;;;21.71;46.56
74778;BME280;63298;53.164;8.610;2023-05-14T09:19:05;101961.03;;;21.69;46.50
74778;BME280;63298;53.164;8.610;2023-05-14T09:21:31;101963.84;;;21.69;46.46
74778;BME280;63298;53.164;8.610;2023-05-14T09:23:57;101952.03;;;21.72;46.23
74778;BME280;63298;53.164;8.610;2023-05-14T09:26:23;101961.03;;;21.79;46.74
74778;BME280;63298;53.164;8.610;2023-05-14T09:28:52;101956.78;;;21.87;46.06
74778;BME280;63298;53.164;8.610;2023-05-14T09:31:18;101942.44;;;21.99;46.25
74778;BME280;63298;53.164;8.610;2023-05-14T09:33:49;101946.59;;;22.16;44.17
74778;BME280;63298;53.164;8.610;2023-05-14T09:36:15;101937.88;;;22.18;44.85
74778;BME280;63298;53.164;8.610;2023-05-14T09:38:41;101949.06;;;22.28;45.07
74778;BME280;63298;53.164;8.610;2023-05-14T09:41:06;101942.31;;;22.34;45.08
74778;BME280;63298;53.164;8.610;2023-05-14T09:43:31;101939.75;;;22.37;44.97
74778;BME280;63298;53.164;8.610;2023-05-14T09:45:57;101943.38;;;22.43;45.16
74778;BME280;63298;53.164;8.610;2023-05-14T09:48:22;101952.59;;;22.54;45.27
74778;BME280;63298;53.164;8.610;2023-05-14T09:50:47;101940.72;;;22.62;45.16
74778;BME280;63298;53.164;8.610;2023-05-14T09:53:13;101948.06;;;22.58;44.79
74778;BME280;63298;53.164;8.610;2023-05-14T09:55:38;101931.44;;;22.61;44.26
74778;BME280;63298;53.164;8.610;2023-05-14T09:58:04;101930.88;;;22.64;44.41
74778;BME280;63298;53.164;8.610;2023-05-14T10:00:31;101939.22;;;22.79;44.39
74778;BME280;63298;53.164;8.610;2023-05-14T10:02:57;101930.69;;;22.90;43.92
74778;BME280;63298;53.164;8.610;2023-05-14T10:05:23;101925.34;;;22.93;43.36
74778;BME280;63298;53.164;8.610;2023-05-14T10:07:50;101921.66;;;22.98;43.30
74778;BME280;63298;53.164;8.610;2023-05-14T10:10:23;101916.81;;;23.03;42.48
74778;BME280;63298;53.164;8.610;2023-05-14T10:12:52;101910.59;;;23.06;42.13
74778;BME280;63298;53.164;8.610;2023-05-14T10:15:36;101917.47;;;23.24;42.51
74778;BME280;63298;53.164;8.610;2023-05-14T10:18:08;101909.19;;;23.38;40.96
74778;BME280;63298;53.164;8.610;2023-05-14T10:20:35;101906.28;;;23.48;41.63
74778;BME280;63298;53.164;8.610;2023-05-14T10:23:02;101906.47;;;23.56;41.59
74778;BME280;63298;53.164;8.610;2023-05-14T10:25:27;101904.97;;;23.64;41.78
74778;BME280;63298;53.164;8.610;2023-05-14T10:27:54;101897.91;;;23.66;41.19
74778;BME280;63298;53.164;8.610;2023-05-14T10:30:22;101894.44;;;23.75;40.84
74778;BME280;63298;53.164;8.610;2023-05-14T10:32:48;101899.53;;;23.73;40.75
74778;BME280;63298;53.164;8.610;2023-05-14T10:35:18;101888.84;;;23.70;39.16
74778;BME280;63298;53.164;8.610;2023-05-14T10:37:43;101890.72;;;23.79;40.28
74778;BME280;63298;53.164;8.610;2023-05-14T10:40:09;101897.13;;;23.85;40.52
74778;BME280;63298;53.164;8.610;2023-05-14T10:42:36;101892.09;;;23.82;40.31
74778;BME280;63298;53.164;8.610;2023-05-14T10:45:04;101884.09;;;23.89;39.38
74778;BME280;63298;53.164;8.610;2023-05-14T10:47:30;101895.50;;;23.79;39.71
74778;BME280;63298;53.164;8.610;2023-05-14T10:50:02;101889.88;;;23.79;40.00
74778;BME280;63298;53.164;8.610;2023-05-14T10:52:28;101881.13;;;23.80;39.91
74778;BME280;63298;53.164;8.610;2023-05-14T10:54:58;101881.00;;;23.90;40.05
74778;BME280;63298;53.164;8.610;2023-05-14T10:57:26;101874.38;;;24.00;39.87
74778;BME280;63298;53.164;8.610;2023-05-14T10:59:56;101871.97;;;24.12;39.45
74778;BME280;63298;53.164;8.610;2023-05-14T11:02:32;101873.34;;;24.15;40.26
74778;BME280;63298;53.164;8.610;2023-05-14T11:07:27;101868.44;;;24.44;39.68
74778;BME280;63298;53.164;8.610;2023-05-14T11:09:58;101866.16;;;24.46;39.07
74778;BME280;63298;53.164;8.610;2023-05-14T11:12:24;101867.03;;;24.23;39.12
74778;BME280;63298;53.164;8.610;2023-05-14T11:14:50;101865.13;;;24.18;39.41
74778;BME280;63298;53.164;8.610;2023-05-14T11:17:16;101854.63;;;24.24;39.32
74778;BME280;63298;53.164;8.610;2023-05-14T11:19:43;101858.06;;;24.39;39.63
74778;BME280;63298;53.164;8.610;2023-05-14T11:22:08;101858.97;;;24.53;39.27
74778;BME280;63298;53.164;8.610;2023-05-14T11:24:33;101851.97;;;24.51;39.11
74778;BME280;63298;53.164;8.610;2023-05-14T11:26:59;101853.72;;;24.47;38.90
74778;BME280;63298;53.164;8.610;2023-05-14T11:29:24;101843.81;;;24.49;38.39
74778;BME280;63298;53.164;8.610;2023-05-14T11:31:49;101841.13;;;24.39;38.35
74778;BME280;63298;53.164;8.610;2023-05-14T11:34:14;101831.06;;;24.33;38.29
74778;BME280;63298;53.164;8.610;2023-05-14T11:36:40;101846.56;;;24.36;38.89
74778;BME280;63298;53.164;8.610;2023-05-14T11:39:05;101836.34;;;24.40;39.04
74778;BME280;63298;53.164;8.610;2023-05-14T11:41:30;101834.06;;;24.42;38.10
74778;BME280;63298;53.164;8.610;2023-05-14T11:43:56;101825.97;;;24.35;38.52
74778;BME280;63298;53.164;8.610;2023-05-14T11:46:22;101836.97;;;24.37;38.57
74778;BME280;63298;53.164;8.610;2023-05-14T11:48:47;101839.59;;;24.28;38.91
74778;BME280;63298;53.164;8.610;2023-05-14T11:51:13;101832.47;;;24.17;38.34
74778;BME280;63298;53.164;8.610;2023-05-14T11:53:38;101829.13;;;24.10;38.96
74778;BME280;63298;53.164;8.610;2023-05-14T11:56:03;101830.19;;;24.14;39.03
74778;BME280;63298;53.164;8.610;2023-05-14T11:58:31;101826.56;;;24.32;38.37
74778;BME280;63298;53.164;8.610;2023-05-14T12:00:57;101814.97;;;24.52;37.97
74778;BME280;63298;53.164;8.610;2023-05-14T12:03:22;101808.22;;;24.67;37.72
74778;BME280;63298;53.164;8.610;2023-05-14T12:06:01;101818.81;;;24.75;37.17
74778;BME280;63298;53.164;8.610;2023-05-14T12:08:31;101808.50;;;24.84;37.30
74778;BME280;63298;53.164;8.610;2023-05-14T12:10:58;101815.91;;;24.80;36.77
74778;BME280;63298;53.164;8.610;2023-05-14T12:13:25;101813.69;;;24.77;37.50
74778;BME280;63298;53.164;8.610;2023-05-14T12:15:56;101812.75;;;24.82;34.99
74778;BME280;63298;53.164;8.610;2023-05-14T12:18:23;101812.56;;;24.78;36.55
74778;BME280;63298;53.164;8.610;2023-05-14T12:20:49;101806.91;;;24.78;37.00
74778;BME280;63298;53.164;8.610;2023-05-14T12:23:14;101812.44;;;24.70;36.96
74778;BME280;63298;53.164;8.610;2023-05-14T12:25:49;101800.47;;;24.59;36.46
74778;BME280;63298;53.164;8.610;2023-05-14T12:28:18;101795.22;;;24.52;36.79
74778;BME280;63298;53.164;8.610;2023-05-14T12:30:45;101792.31;;;24.58;37.16
74778;BME280;63298;53.164;8.610;2023-05-14T12:33:10;101782.78;;;24.53;36.59
74778;BME280;63298;53.164;8.610;2023-05-14T12:35:35;101789.19;;;24.59;36.35
74778;BME280;63298;53.164;8.610;2023-05-14T12:38:02;101772.81;;;24.75;36.46
74778;BME280;63298;53.164;8.610;2023-05-14T12:40:27;101781.16;;;24.99;36.05
74778;BME280;63298;53.164;8.610;2023-05-14T12:42:52;101783.63;;;24.86;35.00
74778;BME280;63298;53.164;8.610;2023-05-14T12:45:18;101776.88;;;24.69;35.37
74778;BME280;63298;53.164;8.610;2023-05-14T12:47:44;101770.38;;;24.68;35.47
74778;BME280;63298;53.164;8.610;2023-05-14T12:50:10;101772.19;;;24.78;35.05